Time;durP1;ratioP1;P1;durP2;ratioP2;P2;SDS_P1;SDS_P2;PMS_P1;PMS_P2;Temp;Humidity;BMP_temperature;BMP_pressure;BME280_temperature;BME280_humidity;BME280_pressure;Samples;Min_cycle;Max_cycle;Signal;HPM_P1;HPM_P2
2024/01/04 00:00:23;;;;;;;3.13;2.45;;;;;;;12.74;57.50;98674.25;667882;29;1744;-94
2024/01/04 00:00:44;;;;;;;3.45;2.40;;;;;;;12.75;57.89;98678.59;667140;29;1295;-93
2024/01/04 00:01:09;;;;;;;3.35;2.40;;;;;;;12.73;57.76;98673.38;668212;29;1190;-93
2024/01/04 00:01:34;;;;;;;2.78;2.13;;;;;;;12.66;57.60;98676.97;669687;29;2056;-94
2024/01/04 00:01:54;;;;;;;3.15;2.28;;;;;;;12.69;57.71;98676.94;672355;29;1352;-93
2024/01/04 00:02:15;;;;;;;3.20;2.20;;;;;;;12.71;57.65;98679.50;671767;29;1079;-93
2024/01/04 00:02:36;;;;;;;3.17;2.30;;;;;;;12.85;57.64;98708.13;671913;29;1482;-93
2024/01/04 00:02:57;;;;;;;3.53;2.40;;;;;;;12.79;57.44;98687.25;672353;29;1341;-93
2024/01/04 00:03:19;;;;;;;3.30;2.42;;;;;;;12.77;57.80;98683.81;672096;29;1170;-93
2024/01/04 00:03:40;;;;;;;3.88;2.55;;;;;;;12.72;57.76;98689.09;675089;29;1481;-94
2024/01/04 00:04:01;;;;;;;3.10;2.42;;;;;;;12.69;57.73;98678.66;667474;29;1216;-92
2024/01/04 00:04:22;;;;;;;3.83;2.40;;;;;;;12.74;57.89;98700.41;674522;29;1282;-93
2024/01/04 00:04:42;;;;;;;3.60;2.23;;;;;;;12.72;57.52;98696.97;669883;29;1243;-93
2024/01/04 00:05:03;;;;;;;2.93;2.00;;;;;;;12.69;57.72;98691.75;666961;29;1422;-95
2024/01/04 00:05:25;;;;;;;3.65;2.60;;;;;;;12.72;57.51;98695.19;672028;29;1169;-93
2024/01/04 00:05:46;;;;;;;4.30;2.70;;;;;;;12.68;57.85;98684.78;664765;29;1426;-93
2024/01/04 00:06:07;;;;;;;4.63;2.92;;;;;;;12.75;57.88;98697.78;672293;29;1326;-93
2024/01/04 00:06:28;;;;;;;3.95;2.53;;;;;;;12.76;57.73;98696.00;672001;29;1253;-94
2024/01/04 00:06:48;;;;;;;5.80;2.60;;;;;;;12.77;57.88;98700.34;667163;29;1287;-93
2024/01/04 00:07:09;;;;;;;5.22;2.58;;;;;;;12.76;57.63;98693.41;669640;29;1152;-93
2024/01/04 00:07:30;;;;;;;4.88;2.67;;;;;;;12.78;57.82;98691.63;671508;29;1278;-94
2024/01/04 00:07:51;;;;;;;3.78;2.50;;;;;;;12.78;57.83;98680.28;667216;29;1623;-93
2024/01/04 00:08:12;;;;;;;3.80;2.37;;;;;;;12.85;57.62;98693.25;669595;29;1160;-93
2024/01/04 00:08:33;;;;;;;4.70;2.57;;;;;;;12.89;57.67;98713.28;664113;29;1316;-94
2024/01/04 00:08:53;;;;;;;3.72;2.55;;;;;;;12.81;57.64;98685.47;667309;29;1484;-93
2024/01/04 00:09:15;;;;;;;5.90;2.60;;;;;;;12.76;57.93;98703.88;664309;29;1398;-93
2024/01/04 00:09:35;;;;;;;5.47;2.45;;;;;;;12.69;57.90;98681.28;667160;29;1377;-93
2024/01/04 00:09:56;;;;;;;6.45;2.42;;;;;;;12.77;57.69;98700.34;662115;29;1480;-94
2024/01/04 00:10:17;;;;;;;6.40;2.40;;;;;;;12.80;57.92;98716.03;671569;29;1436;-94
2024/01/04 00:10:38;;;;;;;3.47;2.10;;;;;;;12.63;57.90;98695.31;671930;29;1224;-94
2024/01/04 00:11:03;;;;;;;3.00;2.00;;;;;;;12.64;58.04;98685.75;666835;29;1295;-93
2024/01/04 00:11:23;;;;;;;3.20;2.22;;;;;;;12.69;57.75;98697.88;668036;29;1228;-93
2024/01/04 00:11:47;;;;;;;3.40;2.40;;;;;;;12.66;57.56;98681.34;669774;29;1124;-92
2024/01/04 00:12:09;;;;;;;3.63;2.35;;;;;;;12.70;58.03;98694.34;666481;29;1288;-93
2024/01/04 00:12:30;;;;;;;3.65;2.20;;;;;;;12.72;57.88;98702.19;664543;29;1167;-93
2024/01/04 00:12:53;;;;;;;4.60;2.10;;;;;;;12.68;57.98;98695.25;669805;29;1318;-92
2024/01/04 00:13:16;;;;;;;7.30;2.40;;;;;;;12.78;58.04;98712.56;671599;29;1760;-94
2024/01/04 00:13:42;;;;;;;7.10;2.30;;;;;;;12.63;57.65;98704.91;669195;29;1418;-93
2024/01/04 00:14:09;;;;;;;5.82;2.70;;;;;;;12.60;57.85;98696.22;669374;29;1179;-93
2024/01/04 00:14:30;;;;;;;4.32;2.65;;;;;;;12.69;57.82;98712.69;671702;29;1354;-93
2024/01/04 00:14:51;;;;;;;3.42;2.53;;;;;;;12.56;58.15;98699.78;672600;29;1140;-94
2024/01/04 00:15:12;;;;;;;3.15;2.30;;;;;;;12.51;57.72;98714.66;669765;29;1319;-94
2024/01/04 00:15:34;;;;;;;3.47;2.47;;;;;;;12.53;58.22;98709.44;664698;29;1233;-95
2024/01/04 00:15:55;;;;;;;3.53;2.40;;;;;;;12.46;58.21;98700.78;672379;29;1308;-94
2024/01/04 00:16:21;;;;;;;3.10;2.22;;;;;;;12.46;57.86;98706.00;672165;29;1211;-94
2024/01/04 00:16:42;;;;;;;3.60;2.30;;;;;;;12.50;57.91;98707.72;664851;29;1268;-93
2024/01/04 00:17:03;;;;;;;3.20;2.10;;;;;;;12.51;58.07;98717.28;672184;29;1416;-93
2024/01/04 00:17:24;;;;;;;3.10;2.10;;;;;;;12.45;58.32;98705.16;670311;29;1453;-93
2024/01/04 00:17:44;;;;;;;2.90;2.20;;;;;;;12.37;57.96;98711.34;664617;29;1907;-93
2024/01/04 00:18:05;;;;;;;2.22;2.00;;;;;;;12.47;58.08;98716.47;669632;29;1447;-93
2024/01/04 00:18:26;;;;;;;2.40;2.10;;;;;;;12.41;57.98;98705.22;672653;29;1222;-93
2024/01/04 00:18:50;;;;;;;2.83;2.30;;;;;;;12.48;58.39;98714.72;667248;29;1575;-94
2024/01/04 00:19:13;;;;;;;3.63;2.58;;;;;;;12.40;58.13;98722.66;661839;29;1515;-92
2024/01/04 00:19:34;;;;;;;3.83;2.50;;;;;;;12.53;58.16;98722.50;670882;29;1392;-94
2024/01/04 00:19:55;;;;;;;3.42;2.30;;;;;;;12.38;58.30;98705.25;669818;29;1200;-94
2024/01/04 00:20:16;;;;;;;2.88;2.28;;;;;;;12.45;58.23;98719.97;669813;29;1246;-93
2024/01/04 00:20:37;;;;;;;2.40;2.20;;;;;;;12.46;58.08;98716.47;672139;29;1435;-93
2024/01/04 00:20:58;;;;;;;2.40;2.13;;;;;;;12.53;58.27;98728.59;672173;29;1278;-93
2024/01/04 00:21:18;;;;;;;2.92;2.30;;;;;;;12.39;58.59;98718.31;672156;29;1443;-92
2024/01/04 00:21:39;;;;;;;2.60;2.30;;;;;;;12.30;58.33;98711.44;672161;29;1236;-93
2024/01/04 00:22:00;;;;;;;3.72;2.25;;;;;;;12.37;58.36;98709.63;664626;29;1153;-94
2024/01/04 00:22:21;;;;;;;4.10;2.33;;;;;;;12.43;58.52;98725.22;667585;29;1421;-93
2024/01/04 00:22:41;;;;;;;4.40;2.45;;;;;;;12.34;58.34;98713.13;669697;29;1132;-93
2024/01/04 00:23:02;;;;;;;3.20;2.40;;;;;;;12.42;58.45;98730.47;664755;29;1327;-93
2024/01/04 00:23:23;;;;;;;2.70;2.22;;;;;;;12.34;58.27;98712.25;672249;29;1238;-94
2024/01/04 00:23:43;;;;;;;2.55;1.98;;;;;;;12.43;58.30;98722.59;675006;29;1235;-93
2024/01/04 00:24:05;;;;;;;2.03;1.80;;;;;;;12.40;58.44;98712.19;666773;29;1152;-93
2024/01/04 00:24:25;;;;;;;2.42;1.73;;;;;;;12.49;58.83;98734.75;669431;29;1242;-94
2024/01/04 00:24:46;;;;;;;2.70;1.95;;;;;;;12.42;58.44;98720.03;672225;29;1442;-93
2024/01/04 00:25:09;;;;;;;3.00;1.90;;;;;;;12.44;58.38;98731.31;664411;29;1460;-93
2024/01/04 00:25:30;;;;;;;3.35;2.08;;;;;;;12.51;58.58;98730.38;669526;29;1279;-94
2024/01/04 00:25:51;;;;;;;3.78;2.10;;;;;;;12.45;58.52;98725.19;669893;29;1177;-93
2024/01/04 00:26:11;;;;;;;3.67;2.20;;;;;;;12.54;58.28;98732.09;674754;29;1132;-94
2024/01/04 00:26:33;;;;;;;2.67;1.95;;;;;;;12.47;58.58;98724.31;672213;29;1412;-94
2024/01/04 00:26:53;;;;;;;2.00;1.80;;;;;;;12.53;58.29;98740.81;666615;29;1441;-94
2024/01/04 00:27:15;;;;;;;2.10;1.90;;;;;;;12.44;58.35;98718.25;672288;29;1272;-94
2024/01/04 00:27:35;;;;;;;1.90;1.80;;;;;;;12.42;58.37;98720.03;666994;29;1285;-93
2024/01/04 00:27:56;;;;;;;2.13;1.97;;;;;;;12.47;58.51;98728.66;672238;29;1288;-92
2024/01/04 00:28:17;;;;;;;2.20;2.00;;;;;;;12.46;58.46;98730.44;667349;29;1177;-95
2024/01/04 00:28:38;;;;;;;2.30;2.10;;;;;;;12.47;58.57;98726.03;669736;29;1391;-94
2024/01/04 00:28:59;;;;;;;2.83;2.25;;;;;;;12.41;58.50;98720.91;674628;29;1273;-93
2024/01/04 00:29:20;;;;;;;2.60;2.25;;;;;;;12.50;58.26;98731.25;667714;29;1519;-93
2024/01/04 00:29:43;;;;;;;2.97;2.33;;;;;;;12.50;58.43;98719.91;669782;29;1269;-94
2024/01/04 00:30:05;;;;;;;2.90;2.10;;;;;;;12.58;58.13;98732.03;669657;29;1301;-94
2024/01/04 00:30:26;;;;;;;3.00;2.08;;;;;;;12.59;58.33;98738.97;667946;29;1192;-94
2024/01/04 00:30:47;;;;;;;3.70;2.20;;;;;;;12.61;58.42;98739.81;672382;29;1670;-94
2024/01/04 00:31:08;;;;;;;3.20;2.10;;;;;;;12.57;58.25;98734.66;672200;29;1175;-94
2024/01/04 00:31:28;;;;;;;3.03;2.00;;;;;;;12.58;58.64;98739.00;669724;29;1111;-94
2024/01/04 00:31:50;;;;;;;2.88;2.08;;;;;;;12.60;58.37;98738.09;672299;29;1171;-94
2024/01/04 00:32:11;;;;;;;4.07;2.30;;;;;;;12.53;58.35;98723.34;672188;29;1431;-93
2024/01/04 00:32:32;;;;;;;3.97;2.33;;;;;;;12.49;58.29;98732.16;669690;29;1134;-93
2024/01/04 00:32:53;;;;;;;3.80;2.40;;;;;;;12.51;58.23;98735.59;669682;29;1403;-93
2024/01/04 00:33:13;;;;;;;3.17;2.45;;;;;;;12.59;58.22;98738.97;669683;29;1289;-94
2024/01/04 00:33:34;;;;;;;3.83;2.30;;;;;;;12.52;58.40;98745.16;667049;29;1205;-92
2024/01/04 00:33:55;;;;;;;3.53;2.13;;;;;;;12.46;58.16;98729.53;664917;29;1314;-93
2024/01/04 00:34:16;;;;;;;3.65;2.13;;;;;;;12.49;58.36;98742.59;669501;29;1248;-93
2024/01/04 00:34:36;;;;;;;3.35;2.10;;;;;;;12.47;58.28;98732.16;672431;29;1145;-94
2024/01/04 00:34:57;;;;;;;3.95;2.10;;;;;;;12.50;58.30;98727.75;666704;29;1126;-94
2024/01/04 00:35:18;;;;;;;4.20;2.17;;;;;;;12.55;58.61;98731.19;667260;29;1270;-93
2024/01/04 00:35:39;;;;;;;4.03;2.20;;;;;;;12.49;58.63;98716.44;672367;29;1279;-93
2024/01/04 00:36:00;;;;;;;3.10;2.30;;;;;;;12.60;58.50;98738.09;667344;29;1156;-93
2024/01/04 00:36:20;;;;;;;3.17;2.30;;;;;;;12.57;58.38;98740.75;671511;29;1334;-93
2024/01/04 00:36:43;;;;;;;2.35;2.05;;;;;;;12.55;58.17;98726.81;669624;29;1207;-95
2024/01/04 00:37:04;;;;;;;2.95;2.15;;;;;;;12.66;58.57;98746.75;663053;29;1348;-94
2024/01/04 00:37:25;;;;;;;3.80;2.25;;;;;;;12.64;58.25;98736.31;670945;29;1399;-93
2024/01/04 00:37:46;;;;;;;4.70;2.43;;;;;;;12.60;58.08;98734.63;669166;29;1907;-95
2024/01/04 00:38:07;;;;;;;4.43;2.30;;;;;;;12.70;58.16;98746.69;664742;29;1309;-94
2024/01/04 00:38:27;;;;;;;2.55;2.08;;;;;;;12.61;57.99;98752.06;671156;29;1216;-94
2024/01/04 00:38:48;;;;;;;2.70;2.20;;;;;;;12.55;58.32;98742.50;669744;29;1255;-94
2024/01/04 00:39:12;;;;;;;2.30;2.05;;;;;;;12.65;58.16;98758.97;667161;29;1220;-95
2024/01/04 00:39:33;;;;;;;2.65;2.03;;;;;;;12.57;58.28;98755.56;669574;29;1359;-94
2024/01/04 00:39:53;;;;;;;3.15;2.10;;;;;;;12.50;58.10;98754.81;669862;29;1344;-93
2024/01/04 00:40:14;;;;;;;3.22;2.22;;;;;;;12.50;58.37;98744.34;664495;29;1216;-94
2024/01/04 00:40:39;;;;;;;2.60;2.10;;;;;;;12.44;58.36;98749.63;661971;29;1414;-93
2024/01/04 00:41:01;;;;;;;2.13;2.00;;;;;;;12.41;58.07;98747.06;667112;29;1227;-94
2024/01/04 00:41:22;;;;;;;3.28;2.15;;;;;;;12.59;58.65;98759.91;667476;29;1337;-95
2024/01/04 00:41:44;;;;;;;2.97;2.00;;;;;;;12.56;58.49;98733.81;666903;29;1146;-92
2024/01/04 00:42:05;;;;;;;2.95;1.98;;;;;;;12.58;58.23;98752.06;672411;29;1277;-93
2024/01/04 00:42:26;;;;;;;2.00;1.80;;;;;;;12.56;58.43;98744.25;673319;29;1547;-94
2024/01/04 00:42:47;;;;;;;2.20;1.90;;;;;;;12.61;58.23;98752.91;664675;29;1259;-93
2024/01/04 00:43:09;;;;;;;2.22;1.90;;;;;;;12.63;58.26;98754.63;669816;29;1178;-94
2024/01/04 00:43:30;;;;;;;2.38;1.90;;;;;;;12.69;58.40;98746.69;674776;29;1195;-93
2024/01/04 00:43:51;;;;;;;2.00;1.80;;;;;;;12.72;58.17;98765.00;672455;29;1164;-94
2024/01/04 00:44:11;;;;;;;2.22;1.80;;;;;;;12.72;58.24;98763.22;674552;29;1167;-94
2024/01/04 00:44:32;;;;;;;3.37;1.90;;;;;;;12.65;58.55;98750.25;672219;29;1108;-93
2024/01/04 00:44:53;;;;;;;4.35;2.00;;;;;;;12.56;58.30;98743.38;667980;29;1795;-94
2024/01/04 00:45:14;;;;;;;4.40;1.90;;;;;;;12.68;58.27;98755.44;664666;29;1279;-93
2024/01/04 00:45:34;;;;;;;3.00;1.90;;;;;;;12.72;58.31;98763.22;672266;29;1367;-94
2024/01/04 00:45:55;;;;;;;2.63;1.90;;;;;;;12.54;57.90;98751.25;672353;29;1397;-92
2024/01/04 00:46:16;;;;;;;2.10;1.85;;;;;;;12.58;58.35;98752.06;669284;29;1314;-95
2024/01/04 00:46:36;;;;;;;2.20;1.55;;;;;;;12.65;58.44;98764.19;672181;29;1705;-93
2024/01/04 00:46:57;;;;;;;1.52;1.40;;;;;;;12.64;58.27;98769.47;667359;29;1232;-94
2024/01/04 00:47:18;;;;;;;2.20;1.60;;;;;;;12.67;58.32;98756.34;669400;29;1482;-95
2024/01/04 00:47:39;;;;;;;2.10;1.80;;;;;;;12.55;58.58;98766.06;672140;29;1387;-95
2024/01/04 00:48:01;;;;;;;2.75;1.95;;;;;;;12.57;58.61;98756.47;674878;29;1222;-93
2024/01/04 00:48:22;;;;;;;4.68;2.03;;;;;;;12.57;58.50;98761.69;672971;29;1235;-93
2024/01/04 00:48:43;;;;;;;5.40;2.10;;;;;;;12.66;58.20;98765.06;667616;29;1060;-93
2024/01/04 00:49:03;;;;;;;4.63;2.10;;;;;;;12.63;58.18;98762.47;667284;29;1166;-94
2024/01/04 00:49:24;;;;;;;2.20;2.00;;;;;;;12.58;57.99;98752.94;668233;29;1175;-95
2024/01/04 00:49:45;;;;;;;2.22;1.90;;;;;;;12.65;58.43;98763.34;667268;29;1089;-93
2024/01/04 00:50:06;;;;;;;2.80;2.00;;;;;;;12.68;58.32;98760.69;672022;29;1273;-94
2024/01/04 00:50:27;;;;;;;3.08;1.90;;;;;;;12.72;58.09;98775.47;663696;29;1575;-94
2024/01/04 00:50:47;;;;;;;4.03;2.00;;;;;;;12.74;58.38;98768.44;671055;29;1184;-94
2024/01/04 00:51:08;;;;;;;4.90;2.00;;;;;;;12.67;58.05;98757.19;674805;29;1171;-94
2024/01/04 00:51:29;;;;;;;5.10;2.20;;;;;;;12.62;58.15;98753.78;671889;29;1343;-93
2024/01/04 00:51:50;;;;;;;3.05;2.15;;;;;;;12.62;58.09;98764.25;669170;29;1195;-94
2024/01/04 00:52:11;;;;;;;2.90;2.20;;;;;;;12.59;57.89;98766.88;666875;29;1678;-93
2024/01/04 00:52:31;;;;;;;2.33;2.10;;;;;;;12.56;57.94;98765.19;672023;29;1315;-93
2024/01/04 00:52:55;;;;;;;1.95;1.73;;;;;;;12.50;58.20;98757.41;669637;29;1347;-93
2024/01/04 00:53:16;;;;;;;2.03;1.70;;;;;;;12.54;58.57;98755.63;662079;29;1248;-94
2024/01/04 00:53:37;;;;;;;2.50;1.70;;;;;;;12.44;58.12;98755.75;669763;29;1148;-94
2024/01/04 00:53:57;;;;;;;2.30;1.60;;;;;;;12.43;58.16;98760.97;669449;29;1106;-93
2024/01/04 00:54:18;;;;;;;2.00;1.60;;;;;;;12.49;58.26;98758.31;667029;29;1207;-94
2024/01/04 00:54:39;;;;;;;1.70;1.60;;;;;;;12.37;58.48;98753.19;664626;29;1220;-93
2024/01/04 00:55:00;;;;;;;1.90;1.67;;;;;;;12.37;58.29;98761.94;667015;29;1499;-93
2024/01/04 00:55:20;;;;;;;1.93;1.77;;;;;;;12.41;58.31;98760.16;669923;29;1332;-94
2024/01/04 00:55:41;;;;;;;1.90;1.80;;;;;;;12.47;58.49;98770.50;674632;29;1462;-94
2024/01/04 00:56:02;;;;;;;4.15;2.15;;;;;;;12.31;58.42;98760.22;672051;29;1391;-93
2024/01/04 00:56:23;;;;;;;5.65;2.15;;;;;;;12.36;58.25;98751.47;664960;29;1395;-94
2024/01/04 00:56:44;;;;;;;5.65;2.17;;;;;;;12.36;58.33;98761.94;669550;29;1275;-94
2024/01/04 00:57:05;;;;;;;4.30;1.90;;;;;;;12.40;58.36;98769.72;669218;29;1304;-93
2024/01/04 00:57:25;;;;;;;2.65;1.80;;;;;;;12.41;58.62;98774.06;671867;29;1229;-94
2024/01/04 00:57:46;;;;;;;2.20;1.67;;;;;;;12.29;58.61;98759.38;672101;29;1911;-93
2024/01/04 00:58:07;;;;;;;2.60;1.80;;;;;;;12.45;58.28;98782.75;667013;29;1174;-93
2024/01/04 00:58:28;;;;;;;2.60;1.88;;;;;;;12.36;58.41;98767.16;669636;29;1272;-92
2024/01/04 00:58:49;;;;;;;2.97;2.20;;;;;;;12.39;58.59;98795.91;669621;29;1540;-93
2024/01/04 00:59:09;;;;;;;2.65;2.13;;;;;;;12.39;58.45;98781.09;669256;29;1730;-93
2024/01/04 00:59:30;;;;;;;2.30;2.00;;;;;;;12.40;58.44;98780.19;671276;29;1335;-93
2024/01/04 00:59:51;;;;;;;2.30;1.90;;;;;;;12.29;58.24;98764.63;669578;29;1466;-93
2024/01/04 01:00:12;;;;;;;1.85;1.73;;;;;;;12.31;58.54;98783.75;664487;29;1660;-94
2024/01/04 01:00:34;;;;;;;2.60;2.00;;;;;;;12.30;58.71;98768.97;669427;29;1256;-93
2024/01/04 01:00:54;;;;;;;2.25;1.92;;;;;;;12.31;58.27;98768.06;669673;29;1203;-94
2024/01/04 01:01:15;;;;;;;2.72;2.10;;;;;;;12.31;58.49;98767.22;669513;29;1422;-93
2024/01/04 01:01:36;;;;;;;2.55;2.17;;;;;;;12.38;58.62;98770.63;672218;29;1320;-93
2024/01/04 01:01:56;;;;;;;2.60;2.10;;;;;;;12.42;58.75;98782.78;664456;29;1232;-94
2024/01/04 01:02:18;;;;;;;2.30;2.10;;;;;;;12.40;58.84;98795.88;669403;29;1155;-93
2024/01/04 01:02:38;;;;;;;2.33;2.10;;;;;;;12.34;58.71;98783.75;672274;29;1243;-93
2024/01/04 01:02:59;;;;;;;2.93;2.20;;;;;;;12.34;58.74;98780.25;663327;29;1544;-94
2024/01/04 01:03:20;;;;;;;2.78;2.10;;;;;;;12.30;58.81;98782.03;666887;29;1145;-93
2024/01/04 01:03:41;;;;;;;3.22;1.90;;;;;;;12.30;58.51;98779.41;667140;29;1383;-93
2024/01/04 01:04:01;;;;;;;3.10;1.90;;;;;;;12.33;58.81;98787.25;669221;29;1303;-93
2024/01/04 01:04:22;;;;;;;3.70;2.20;;;;;;;12.22;58.93;98778.63;671854;29;1197;-93
2024/01/04 01:04:43;;;;;;;2.70;2.30;;;;;;;12.30;58.58;98774.19;674562;29;1210;-94
2024/01/04 01:05:05;;;;;;;2.55;2.20;;;;;;;12.37;58.71;98789.81;674815;29;1184;-93
2024/01/04 01:05:25;;;;;;;2.45;2.08;;;;;;;12.36;59.03;98782.88;664495;29;1138;-93
2024/01/04 01:05:46;;;;;;;3.25;2.20;;;;;;;12.32;58.59;98779.41;667339;29;1310;-93
2024/01/04 01:06:11;;;;;;;3.53;2.10;;;;;;;12.38;58.80;98783.69;669602;29;1323;-93
2024/01/04 01:06:32;;;;;;;4.22;2.40;;;;;;;12.39;58.98;98788.94;671488;29;1436;-93
2024/01/04 01:06:52;;;;;;;3.87;2.50;;;;;;;12.42;58.54;98788.88;664543;29;1228;-93
2024/01/04 01:07:13;;;;;;;3.17;2.40;;;;;;;12.44;58.85;98781.03;666609;29;1878;-93
2024/01/04 01:07:34;;;;;;;3.47;2.40;;;;;;;12.34;58.85;98770.66;663974;29;1321;-93
2024/01/04 01:07:55;;;;;;;3.90;2.20;;;;;;;12.45;58.75;98787.97;669777;29;1218;-93
2024/01/04 01:08:16;;;;;;;3.95;2.30;;;;;;;12.39;58.48;98777.59;671997;29;1250;-93
2024/01/04 01:08:37;;;;;;;2.92;1.98;;;;;;;12.45;58.77;98782.75;674838;29;1227;-92
2024/01/04 01:08:58;;;;;;;2.37;2.10;;;;;;;12.42;58.56;98790.66;669265;29;1168;-93
2024/01/04 01:09:19;;;;;;;2.30;2.00;;;;;;;12.36;58.73;98781.13;661965;29;1316;-93
2024/01/04 01:09:39;;;;;;;2.58;2.03;;;;;;;12.41;58.71;98796.75;672132;29;1336;-94
2024/01/04 01:10:00;;;;;;;2.30;1.90;;;;;;;12.31;58.90;98783.75;669629;29;1248;-94
2024/01/04 01:10:21;;;;;;;1.90;1.70;;;;;;;12.30;58.94;98795.09;664481;29;1310;-93
2024/01/04 01:10:41;;;;;;;2.00;1.80;;;;;;;12.25;58.88;98785.59;667153;29;1201;-92
2024/01/04 01:11:02;;;;;;;1.92;1.73;;;;;;;12.30;58.86;98779.41;671886;29;1138;-94
2024/01/04 01:11:23;;;;;;;2.35;1.85;;;;;;;12.37;58.83;98784.59;673199;29;1130;-93
2024/01/04 01:11:44;;;;;;;2.20;1.80;;;;;;;12.45;58.63;98803.69;666959;29;1200;-94
2024/01/04 01:12:05;;;;;;;2.00;1.70;;;;;;;12.36;58.95;98783.75;669603;29;1215;-93
2024/01/04 01:12:26;;;;;;;2.67;1.85;;;;;;;12.33;59.34;98774.19;671096;29;1238;-94
2024/01/04 01:12:46;;;;;;;3.00;2.00;;;;;;;12.33;58.83;98776.78;661915;29;1251;-93
2024/01/04 01:13:07;;;;;;;3.45;2.22;;;;;;;12.46;58.53;98793.22;661793;29;1358;-94
2024/01/04 01:13:28;;;;;;;2.30;2.00;;;;;;;12.33;59.03;98779.41;667333;29;1514;-93
2024/01/04 01:13:49;;;;;;;3.50;2.00;;;;;;;12.42;58.65;98785.41;672365;29;1198;-93
2024/01/04 01:14:10;;;;;;;3.10;2.00;;;;;;;12.31;58.62;98780.31;674093;29;1301;-93
2024/01/04 01:14:31;;;;;;;3.35;2.08;;;;;;;12.43;58.85;98787.16;667747;29;1219;-94
2024/01/04 01:14:52;;;;;;;2.55;2.00;;;;;;;12.41;58.50;98786.31;669718;29;1125;-94
2024/01/04 01:15:13;;;;;;;2.80;1.90;;;;;;;12.40;58.78;98802.88;672407;29;1155;-93
2024/01/04 01:15:35;;;;;;;3.50;2.00;;;;;;;12.44;59.00;98796.72;673685;29;1357;-93
2024/01/04 01:15:55;;;;;;;3.00;1.92;;;;;;;12.34;58.52;98791.59;669745;29;1252;-94
2024/01/04 01:16:16;;;;;;;3.15;1.83;;;;;;;12.43;59.02;98802.84;664355;29;1147;-93
2024/01/04 01:16:37;;;;;;;2.90;1.83;;;;;;;12.46;58.70;98805.41;667091;29;1306;-93
2024/01/04 01:16:57;;;;;;;3.10;1.90;;;;;;;12.44;58.72;98800.22;672266;29;1302;-93
2024/01/04 01:17:18;;;;;;;2.65;2.00;;;;;;;12.49;58.58;98800.16;671940;29;1424;-93
2024/01/04 01:17:39;;;;;;;1.90;1.80;;;;;;;12.45;58.51;98804.56;667068;29;1966;-93
2024/01/04 01:18:02;;;;;;;1.80;1.70;;;;;;;12.46;58.71;98800.19;671814;29;1651;-93
2024/01/04 01:18:23;;;;;;;1.67;1.58;;;;;;;12.48;58.59;98808.91;671392;29;1232;-93
2024/01/04 01:18:44;;;;;;;1.88;1.67;;;;;;;12.42;58.87;98794.09;669639;29;1256;-94
2024/01/04 01:19:05;;;;;;;2.07;1.80;;;;;;;12.38;58.76;98797.66;669559;29;1160;-94
2024/01/04 01:19:26;;;;;;;2.10;1.90;;;;;;;12.46;58.80;98808.91;670405;29;1164;-93
2024/01/04 01:19:47;;;;;;;2.60;1.90;;;;;;;12.51;58.76;98811.47;674834;29;1266;-93
2024/01/04 01:20:08;;;;;;;2.42;1.90;;;;;;;12.46;58.74;98800.19;666939;29;1271;-93
2024/01/04 01:20:29;;;;;;;4.18;2.05;;;;;;;12.50;58.44;98806.25;668314;29;1176;-94
2024/01/04 01:20:50;;;;;;;3.93;2.07;;;;;;;12.37;58.55;98789.81;664946;29;1250;-93
2024/01/04 01:21:11;;;;;;;4.22;2.00;;;;;;;12.38;58.75;98802.88;667386;29;1295;-94
2024/01/04 01:21:32;;;;;;;2.38;1.90;;;;;;;12.31;58.86;98801.22;672223;29;1366;-94
2024/01/04 01:21:56;;;;;;;7.40;2.00;;;;;;;12.29;58.80;98798.63;670223;29;1393;-94
2024/01/04 01:22:19;;;;;;;7.45;2.20;;;;;;;12.42;58.77;98814.19;672535;29;1309;-94
2024/01/04 01:22:41;;;;;;;2.70;2.10;;;;;;;12.25;58.87;98804.78;670225;29;1357;-95
2024/01/04 01:23:05;;;;;;;2.30;2.10;;;;;;;12.28;58.69;98806.50;662372;29;1396;-94
2024/01/04 01:23:25;;;;;;;2.60;2.30;;;;;;;12.26;58.88;98785.59;668250;29;1316;-95
2024/01/04 01:23:47;;;;;;;2.70;2.22;;;;;;;12.14;58.55;98802.28;667977;29;1317;-93
2024/01/04 01:24:10;;;;;;;2.63;2.20;;;;;;;12.32;59.01;98826.50;672395;29;1249;-94
2024/01/04 01:24:33;;;;;;;2.20;2.00;;;;;;;12.16;58.84;98803.13;672989;29;1518;-94
2024/01/04 01:24:54;;;;;;;2.45;2.20;;;;;;;12.29;59.09;98822.16;669687;29;1402;-94
2024/01/04 01:25:15;;;;;;;2.33;2.10;;;;;;;12.30;58.87;98816.03;664889;29;1311;-93
2024/01/04 01:25:36;;;;;;;2.80;2.33;;;;;;;12.15;58.93;98801.38;667220;29;1386;-93
2024/01/04 01:25:57;;;;;;;2.50;2.10;;;;;;;12.10;59.12;98816.25;667655;29;1334;-94
2024/01/04 01:26:17;;;;;;;2.65;2.03;;;;;;;12.19;58.98;98823.13;669837;29;1393;-95
2024/01/04 01:26:39;;;;;;;2.47;1.80;;;;;;;12.19;58.76;98817.91;667460;29;1211;-94
2024/01/04 01:26:59;;;;;;;4.00;2.00;;;;;;;12.24;58.73;98820.47;664961;29;1362;-94
2024/01/04 01:27:21;;;;;;;3.90;2.00;;;;;;;12.19;58.77;98805.69;672883;29;1255;-94
2024/01/04 01:27:42;;;;;;;4.30;2.00;;;;;;;12.20;58.56;98811.78;672568;29;1218;-93
2024/01/04 01:28:05;;;;;;;2.60;1.70;;;;;;;12.20;58.62;98814.41;670040;29;1155;-94
2024/01/04 01:28:31;;;;;;;2.00;1.60;;;;;;;12.22;59.00;98835.31;671218;29;1228;-95
2024/01/04 01:28:52;;;;;;;1.60;1.50;;;;;;;12.13;58.85;98824.06;675346;29;1128;-95
2024/01/04 01:29:12;;;;;;;1.60;1.50;;;;;;;12.12;58.84;98855.44;673814;29;1234;-94
2024/01/04 01:29:33;;;;;;;2.17;1.77;;;;;;;12.01;59.05;98824.19;669769;29;1247;-92
2024/01/04 01:29:54;;;;;;;2.20;1.90;;;;;;;12.06;59.38;98832.84;672892;29;903;-93
2024/01/04 01:30:14;;;;;;;2.03;1.77;;;;;;;12.07;59.35;98834.56;670091;29;1234;-94
2024/01/04 01:30:35;;;;;;;1.70;1.60;;;;;;;12.03;59.34;98817.19;667147;29;1253;-92
2024/01/04 01:30:56;;;;;;;1.60;1.50;;;;;;;12.14;59.38;98836.25;662658;29;1163;-94
2024/01/04 01:31:17;;;;;;;3.08;1.67;;;;;;;12.11;59.10;98824.97;667503;29;1207;-94
2024/01/04 01:31:41;;;;;;;3.25;1.73;;;;;;;12.22;59.18;98838.78;670042;29;1266;-93
2024/01/04 01:32:02;;;;;;;4.35;1.88;;;;;;;12.09;58.97;98821.50;672474;29;1258;-94
2024/01/04 01:32:23;;;;;;;2.88;1.83;;;;;;;12.02;59.23;98837.25;670036;29;1433;-93
2024/01/04 01:32:44;;;;;;;2.53;1.70;;;;;;;12.04;59.34;98819.78;667775;29;1165;-92
2024/01/04 01:33:05;;;;;;;2.10;1.87;;;;;;;12.07;59.37;98834.56;667549;29;1098;-94
2024/01/04 01:33:26;;;;;;;2.13;1.92;;;;;;;12.04;59.24;98821.56;670569;29;1479;-93
2024/01/04 01:33:47;;;;;;;2.58;2.00;;;;;;;12.15;59.41;98826.66;662456;29;1129;-94
2024/01/04 01:34:08;;;;;;;3.00;1.98;;;;;;;12.10;59.01;98818.84;666873;29;1311;-95
2024/01/04 01:34:29;;;;;;;2.75;1.83;;;;;;;12.09;58.90;98827.59;671194;29;1350;-93
2024/01/04 01:34:50;;;;;;;2.72;1.80;;;;;;;12.10;59.17;98823.22;672281;29;1139;-94
2024/01/04 01:35:11;;;;;;;2.67;1.80;;;;;;;12.15;59.16;98837.09;675132;29;1184;-93
2024/01/04 01:35:31;;;;;;;2.47;1.80;;;;;;;12.18;59.00;98834.47;672537;29;1443;-93
2024/01/04 01:35:52;;;;;;;1.80;1.70;;;;;;;12.09;59.28;98826.72;669234;29;1342;-93
2024/01/04 01:36:13;;;;;;;2.00;1.80;;;;;;;12.07;59.29;98835.44;667574;29;1189;-92
2024/01/04 01:36:34;;;;;;;2.47;1.77;;;;;;;12.15;59.36;98832.75;672566;29;1297;-94
2024/01/04 01:36:55;;;;;;;2.45;1.80;;;;;;;12.18;59.04;98842.31;672706;29;1248;-93
2024/01/04 01:37:15;;;;;;;1.83;1.55;;;;;;;12.09;59.11;98821.50;667592;29;1279;-93
2024/01/04 01:37:37;;;;;;;1.67;1.58;;;;;;;12.23;59.00;98837.91;668977;29;1259;-93
2024/01/04 01:37:57;;;;;;;2.00;1.70;;;;;;;12.12;59.32;98826.69;672809;29;1247;-92
2024/01/04 01:38:18;;;;;;;2.03;1.83;;;;;;;12.13;59.02;98831.03;670672;29;1180;-93
2024/01/04 01:38:39;;;;;;;1.90;1.70;;;;;;;12.12;58.82;98834.53;668308;29;1307;-94
2024/01/04 01:39:00;;;;;;;2.03;1.83;;;;;;;12.18;59.39;98834.47;670132;29;1214;-94
2024/01/04 01:39:21;;;;;;;2.90;2.10;;;;;;;12.15;59.11;98831.88;672046;29;1262;-93
2024/01/04 01:39:42;;;;;;;3.10;2.30;;;;;;;12.13;58.60;98825.81;672481;29;1201;-92
2024/01/04 01:40:03;;;;;;;2.63;2.10;;;;;;;12.19;59.20;98844.06;667591;29;1198;-94
2024/01/04 01:40:24;;;;;;;2.30;1.95;;;;;;;12.16;58.97;98844.09;667395;29;1285;-94
2024/01/04 01:40:45;;;;;;;2.60;1.90;;;;;;;12.20;58.99;98845.78;665159;29;1160;-94
2024/01/04 01:41:06;;;;;;;2.80;1.90;;;;;;;12.19;58.91;98838.81;667211;29;1308;-94
2024/01/04 01:41:26;;;;;;;2.55;1.90;;;;;;;12.22;59.04;98838.78;667485;29;1282;-94
2024/01/04 01:41:47;;;;;;;2.20;1.90;;;;;;;12.22;58.64;98838.78;675314;29;1150;-94
2024/01/04 01:42:08;;;;;;;2.00;1.90;;;;;;;12.18;58.96;98827.47;672614;29;1230;-94
2024/01/04 01:42:29;;;;;;;2.43;1.90;;;;;;;12.23;58.68;98830.06;668796;29;1283;-93